Jonesboro Municipal Airport
KJBR : now visible

Airfield :











YOU CAN JOIN US ON...

 
LOGIN :

Register | Disclaimer

   EN    FR    IT 

 









Legend :    VFR   Marginal VFR   IFR   Intensive IFR   Very Intensive IFR
Visi :
Ceiling :
>= 8 km
>= 3000ft
5 to 8 km
1000 to 3000 ft
1500m to 5 km
500 to 1000 ft
800 to 1500m
200 to 500 ft
< 800m
< 200 ft
Symbols :   Thunderstorms  Fog  Heavy snow  Heavy precipitations  Wind > 20 kt






- Airport Elevation : 262 ft
- IATA code : JBR


KJBR - Jonesboro Municipal

CURRENT METAR :
  • 021553Z AUTO 19011KT 10SM CLR 30/22 A3002 RMK AO2 SLP161 T03000222 $

EXPIRED METARs :
  • 021501Z AUTO 23009KT 10SM SCT019 29/22 A3002 RMK AO2 T02890222 $
  • 021453Z AUTO 23008KT 10SM BKN019 29/22 A3002 RMK AO2 SLP161 T02890222 51007 $
  • 020253Z AUTO 18005KT 10SM CLR 28/22 A2996 RMK AO2 SLP141 T02830222 51004 $

TAF KJBR
Valid from the 02 at 13:00 until the 03 at 12:00 UTC


021242Z 0213/0312 22005KT P6SM SKC
FM021400 21007KT P6SM SCT035
FM022000 20008KT P6SM VCSH SCT045
FM030100 20004KT P6SM FEW200
KZME FIR / North America



MET'MAP, your aeronautical weather chart ! - Copyright ORBIFLY December 2007 - Disclaimer

ORBIFLY MET'MAP TEAM :

Programming & Development : Alexandra Zaïnal
Original concept : Baudouin d'Aumeries
Technical & hardware support : Manuel Goepfert
Assistance : Marc-Olivier Méhu




SOURCES & CREDITS :

   NOAA       Earth
Advisory